Time;durP1;ratioP1;P1;durP2;ratioP2;P2;SDS_P1;SDS_P2;PMS_P1;PMS_P2;Temp;Humidity;BMP_temperature;BMP_pressure;BME280_temperature;BME280_humidity;BME280_pressure;Samples;Min_cycle;Max_cycle;Signal;HPM_P1;HPM_P2
2023/06/18 00:00:35;;;;;;;6.05;3.95;;;;;;;25.12;37.82;101256.03;5033583;28;20861;-66
2023/06/18 00:03:01;;;;;;;5.75;4.25;;;;;;;25.12;37.63;101251.53;5033616;28;20040;-67
2023/06/18 00:05:26;;;;;;;5.68;4.05;;;;;;;25.12;37.71;101254.19;5033757;28;20044;-67
2023/06/18 00:07:51;;;;;;;5.70;4.00;;;;;;;25.09;37.50;101251.84;5033420;28;20029;-66
2023/06/18 00:10:17;;;;;;;6.15;4.00;;;;;;;25.09;37.78;101249.19;5033910;28;20033;-66
2023/06/18 00:12:42;;;;;;;5.68;4.03;;;;;;;25.10;37.68;101250.00;5034116;28;20037;-66
2023/06/18 00:15:08;;;;;;;8.10;3.90;;;;;;;25.11;37.40;101251.69;5032993;28;20366;-67
2023/06/18 00:17:33;;;;;;;6.05;4.00;;;;;;;25.07;37.86;101248.53;5032401;28;20049;-66
2023/06/18 00:19:58;;;;;;;5.93;4.38;;;;;;;25.10;37.48;101258.88;5033037;28;20107;-66
2023/06/18 00:22:24;;;;;;;5.93;4.28;;;;;;;25.10;37.60;101247.34;5032488;28;20086;-67
2023/06/18 00:24:49;;;;;;;5.80;4.15;;;;;;;25.08;37.50;101244.84;5033197;28;20493;-67
2023/06/18 00:27:15;;;;;;;6.30;4.30;;;;;;;25.10;37.52;101237.53;5033148;28;20029;-66
2023/06/18 00:29:40;;;;;;;5.20;3.78;;;;;;;25.09;37.50;101235.84;5032418;28;20079;-66
2023/06/18 00:32:08;;;;;;;5.82;3.92;;;;;;;25.06;37.28;101230.84;5032852;28;20045;-65
2023/06/18 00:34:35;;;;;;;6.05;4.32;;;;;;;25.07;37.92;101237.00;5033098;28;20032;-67
2023/06/18 00:37:02;;;;;;;5.65;4.20;;;;;;;25.07;37.73;101237.00;5032950;28;20095;-66
2023/06/18 00:39:28;;;;;;;6.43;4.18;;;;;;;25.06;37.54;101225.50;5032975;28;20039;-66
2023/06/18 00:41:53;;;;;;;5.75;3.75;;;;;;;25.07;38.10;101227.19;5032792;28;20037;-66
2023/06/18 00:44:21;;;;;;;6.15;4.13;;;;;;;25.08;37.88;101225.34;5032595;28;20253;-66
2023/06/18 00:46:51;;;;;;;4.82;3.53;;;;;;;25.06;37.92;101219.34;5033304;28;20025;-66
2023/06/18 00:49:18;;;;;;;5.57;4.32;;;;;;;25.07;37.76;101221.00;5032887;28;20112;-67
2023/06/18 00:51:44;;;;;;;5.53;3.92;;;;;;;25.07;37.68;101226.34;5032719;28;20081;-67
2023/06/18 00:54:15;;;;;;;6.63;4.07;;;;;;;25.05;37.80;101223.00;5032074;28;20515;-67
2023/06/18 00:56:50;;;;;;;6.25;4.03;;;;;;;25.05;37.71;101218.50;5031941;28;20136;-67
2023/06/18 00:59:23;;;;;;;5.70;4.22;;;;;;;25.07;37.76;101223.66;5032517;28;20064;-67
2023/06/18 01:01:53;;;;;;;5.75;4.05;;;;;;;25.03;37.59;101215.16;5032783;28;20025;-67
2023/06/18 01:04:20;;;;;;;5.75;4.35;;;;;;;25.07;37.87;101215.66;5032549;28;20496;-67
2023/06/18 01:06:51;;;;;;;5.50;4.05;;;;;;;25.05;37.95;101210.50;5032513;28;20128;-66
2023/06/18 01:09:21;;;;;;;5.72;4.10;;;;;;;25.04;38.07;101208.00;5031698;28;20102;-66
2023/06/18 01:11:47;;;;;;;5.80;3.70;;;;;;;25.07;38.06;101213.00;5032120;28;20469;-68
2023/06/18 01:14:14;;;;;;;6.35;4.13;;;;;;;25.03;37.68;101207.16;5032147;28;20040;-67
2023/06/18 01:16:45;;;;;;;6.32;3.88;;;;;;;25.04;38.01;101208.00;5032149;28;20057;-66
2023/06/18 01:19:27;;;;;;;7.15;4.10;;;;;;;25.01;38.16;101208.31;5032071;28;20092;-67
2023/06/18 01:21:58;;;;;;;5.70;4.45;;;;;;;25.01;38.15;101206.50;5032072;28;20032;-66
2023/06/18 01:24:28;;;;;;;4.80;3.72;;;;;;;25.03;38.17;101204.50;5039153;28;20048;-66
2023/06/18 01:26:56;;;;;;;6.63;4.35;;;;;;;25.01;37.96;101200.31;5031261;28;20033;-66
2023/06/18 01:29:26;;;;;;;5.35;3.72;;;;;;;25.01;37.83;101203.84;5031661;28;20047;-67
2023/06/18 01:31:52;;;;;;;6.88;4.63;;;;;;;25.03;38.24;101209.00;5031962;28;20033;-66
2023/06/18 01:34:18;;;;;;;6.72;4.63;;;;;;;25.03;38.19;101207.16;5031263;28;20112;-66
2023/06/18 01:36:53;;;;;;;6.03;4.00;;;;;;;24.98;38.00;101202.31;5031828;28;20065;-66
2023/06/18 01:39:50;;;;;;;6.60;4.20;;;;;;;25.01;38.20;101203.84;5031793;28;20037;-66
2023/06/18 01:42:16;;;;;;;6.38;4.63;;;;;;;25.01;37.96;101193.19;5032053;28;20044;-66
2023/06/18 01:44:46;;;;;;;5.60;4.00;;;;;;;25.01;38.22;101187.00;5031955;28;20089;-68
2023/06/18 01:47:15;;;;;;;5.90;4.03;;;;;;;25.00;37.76;101191.50;5031586;28;20025;-67
2023/06/18 01:49:42;;;;;;;6.72;4.50;;;;;;;25.00;38.10;101194.16;5031516;28;20029;-66
2023/06/18 01:52:09;;;;;;;6.45;4.70;;;;;;;24.98;37.89;101190.81;5031306;28;20060;-67
2023/06/18 01:54:35;;;;;;;7.50;4.20;;;;;;;24.98;38.22;101186.31;5031319;28;20029;-68
2023/06/18 01:57:01;;;;;;;5.47;3.92;;;;;;;25.01;38.00;101192.31;5029958;28;20389;-65
2023/06/18 01:59:27;;;;;;;6.00;4.55;;;;;;;24.99;38.11;101189.81;5031357;28;20030;-66
2023/06/18 02:01:53;;;;;;;6.03;4.25;;;;;;;24.99;38.19;101193.34;5031492;28;20037;-67
2023/06/18 02:04:18;;;;;;;7.28;5.47;;;;;;;25.00;38.06;101188.81;5030364;28;20032;-66
2023/06/18 02:06:43;;;;;;;5.88;3.80;;;;;;;24.98;37.82;101185.50;5031246;28;20480;-66
2023/06/18 02:09:08;;;;;;;7.63;4.23;;;;;;;24.99;38.34;101185.34;5031074;28;20076;-66
2023/06/18 02:11:34;;;;;;;6.30;4.15;;;;;;;25.00;37.92;101180.81;5046293;28;20721;-68
2023/06/18 02:13:59;;;;;;;6.35;4.20;;;;;;;24.98;38.20;101175.66;5029779;28;20029;-66
2023/06/18 02:16:25;;;;;;;5.45;4.25;;;;;;;24.97;37.99;101175.81;5030687;28;20028;-67
2023/06/18 02:18:50;;;;;;;6.90;4.63;;;;;;;24.97;38.20;101176.66;5031148;28;20521;-67
2023/06/18 02:21:15;;;;;;;5.37;4.20;;;;;;;24.98;38.61;101175.66;5030815;28;20048;-68
2023/06/18 02:23:40;;;;;;;6.47;4.43;;;;;;;24.98;38.14;101173.00;5031101;28;20827;-67
2023/06/18 02:26:08;;;;;;;6.13;4.40;;;;;;;24.96;38.23;101174.16;5031479;28;20021;-65
2023/06/18 02:28:33;;;;;;;6.55;4.63;;;;;;;24.97;38.21;101173.16;5030698;28;20087;-67
2023/06/18 02:30:59;;;;;;;6.23;4.20;;;;;;;24.96;38.20;101172.31;5030860;28;20036;-66
2023/06/18 02:33:25;;;;;;;6.68;4.38;;;;;;;24.96;38.14;101177.66;5030912;28;20282;-66
2023/06/18 02:35:50;;;;;;;6.03;4.60;;;;;;;24.96;38.47;101167.00;5030709;28;20029;-67
2023/06/18 02:38:16;;;;;;;6.05;4.35;;;;;;;24.94;38.28;101163.66;5031302;28;20037;-67
2023/06/18 02:40:41;;;;;;;5.68;4.35;;;;;;;24.95;38.60;101159.97;5029380;28;21039;-66
2023/06/18 02:43:08;;;;;;;5.85;4.32;;;;;;;24.96;38.43;101163.50;5031160;28;20033;-66
2023/06/18 02:45:33;;;;;;;6.88;4.47;;;;;;;24.93;38.22;101156.66;5030399;28;20718;-66
2023/06/18 02:47:59;;;;;;;6.60;4.88;;;;;;;24.93;38.28;101158.50;5030698;28;20037;-66
2023/06/18 02:50:24;;;;;;;7.00;4.53;;;;;;;24.94;38.40;101166.34;5030457;28;20140;-68
2023/06/18 02:52:49;;;;;;;5.72;4.30;;;;;;;24.94;38.04;101169.00;5031031;28;20408;-67
2023/06/18 02:55:15;;;;;;;5.70;4.23;;;;;;;24.92;38.33;101168.31;5031169;28;20047;-66
2023/06/18 02:57:41;;;;;;;6.40;4.55;;;;;;;24.93;38.16;101164.66;5031046;28;20841;-65
2023/06/18 03:00:11;;;;;;;7.13;4.88;;;;;;;24.92;38.57;101159.47;5030668;28;20088;-66
2023/06/18 03:02:37;;;;;;;6.28;4.47;;;;;;;24.91;38.30;101158.66;5030612;28;20052;-68
2023/06/18 03:05:03;;;;;;;6.57;4.63;;;;;;;24.89;38.14;101160.63;5030238;28;20458;-65
2023/06/18 03:07:28;;;;;;;6.43;4.88;;;;;;;24.93;38.66;101169.16;5030897;28;20036;-67
2023/06/18 03:09:54;;;;;;;7.53;4.80;;;;;;;24.91;38.15;101163.13;5030025;28;20140;-66
2023/06/18 03:12:19;;;;;;;5.65;4.35;;;;;;;24.91;38.29;101166.66;5030719;28;20033;-66
2023/06/18 03:14:45;;;;;;;8.13;4.90;;;;;;;24.91;38.65;101173.78;5030924;28;20365;-67
2023/06/18 03:17:10;;;;;;;6.00;4.55;;;;;;;24.91;38.30;101169.31;5030638;28;20041;-66
2023/06/18 03:19:35;;;;;;;6.05;4.70;;;;;;;24.88;38.39;101168.78;5033910;28;20037;-66
2023/06/18 03:22:06;;;;;;;6.55;4.72;;;;;;;24.88;38.63;101163.47;5033213;28;20527;-66
2023/06/18 03:24:32;;;;;;;6.00;4.75;;;;;;;24.89;38.20;101165.97;5035097;28;20492;-65
2023/06/18 03:26:58;;;;;;;8.68;4.75;;;;;;;24.89;38.20;101165.97;5033758;28;20037;-65
2023/06/18 03:29:28;;;;;;;7.32;5.32;;;;;;;24.88;38.19;101169.66;5033643;28;20234;-64
2023/06/18 03:31:54;;;;;;;6.18;4.85;;;;;;;24.83;38.69;101157.78;5033726;28;20056;-66
2023/06/18 03:34:20;;;;;;;6.75;4.93;;;;;;;24.88;38.39;101166.97;5034057;28;20119;-66
2023/06/18 03:36:47;;;;;;;7.50;4.68;;;;;;;24.88;38.67;101168.78;5033847;28;20767;-67
2023/06/18 03:39:13;;;;;;;6.57;4.70;;;;;;;24.86;38.45;101165.47;5034193;28;20044;-66
2023/06/18 03:41:39;;;;;;;5.88;4.85;;;;;;;24.88;38.21;101166.97;5033545;28;20393;-67
2023/06/18 03:44:04;;;;;;;6.38;4.68;;;;;;;24.88;38.24;101169.66;5033632;28;20405;-66
2023/06/18 03:46:30;;;;;;;6.13;4.78;;;;;;;24.87;38.57;101170.63;5033613;28;20481;-66
2023/06/18 03:48:55;;;;;;;7.13;4.90;;;;;;;24.88;38.26;101169.66;5033274;28;20037;-67
2023/06/18 03:51:21;;;;;;;6.97;5.07;;;;;;;24.86;38.22;101168.13;5033600;28;20045;-67
2023/06/18 03:53:46;;;;;;;6.30;4.80;;;;;;;24.86;38.59;101165.47;5033974;28;20073;-67
2023/06/18 03:56:11;;;;;;;6.13;5.00;;;;;;;24.87;38.65;101172.47;5032283;28;20029;-67
2023/06/18 03:58:37;;;;;;;6.17;4.67;;;;;;;24.86;38.39;101171.63;5033605;28;20030;-66
2023/06/18 04:01:02;;;;;;;6.65;4.90;;;;;;;24.85;38.74;101180.63;5032824;28;20357;-67
2023/06/18 04:03:27;;;;;;;6.03;4.68;;;;;;;24.88;38.51;101187.44;5033193;28;20206;-68
2023/06/18 04:05:53;;;;;;;7.07;5.30;;;;;;;24.87;38.35;101185.78;5033902;28;20457;-66
2023/06/18 04:08:19;;;;;;;6.80;4.80;;;;;;;24.86;38.16;101184.94;5033199;28;20286;-66
2023/06/18 04:10:45;;;;;;;6.60;4.85;;;;;;;24.85;38.79;101191.28;5033240;28;20037;-66
2023/06/18 04:13:18;;;;;;;6.15;5.00;;;;;;;24.85;38.79;101187.75;5033172;28;20056;-67
2023/06/18 04:15:44;;;;;;;6.55;4.78;;;;;;;24.83;38.05;101181.78;5032906;28;20057;-66
2023/06/18 04:18:09;;;;;;;8.20;4.90;;;;;;;24.85;38.40;101179.78;5032899;28;20145;-67
2023/06/18 04:20:35;;;;;;;5.75;4.53;;;;;;;24.86;38.47;101184.13;5032915;28;20465;-67
2023/06/18 04:23:00;;;;;;;6.17;4.87;;;;;;;24.85;38.44;101188.63;5033163;28;20083;-65
2023/06/18 04:25:25;;;;;;;7.93;5.30;;;;;;;24.84;38.49;101183.44;5033399;28;20271;-67
2023/06/18 04:27:51;;;;;;;6.68;4.80;;;;;;;24.84;38.68;101184.28;5032228;28;20029;-67
2023/06/18 04:30:17;;;;;;;6.82;5.20;;;;;;;24.85;38.80;101185.09;5032684;28;20032;-66
2023/06/18 04:32:42;;;;;;;6.15;4.53;;;;;;;24.83;38.30;101179.94;5032584;28;20561;-66
2023/06/18 04:35:08;;;;;;;6.83;5.10;;;;;;;24.85;38.35;101185.09;5032233;28;20885;-67
2023/06/18 04:37:33;;;;;;;7.80;5.13;;;;;;;24.83;38.73;101179.94;5032935;28;20269;-67
2023/06/18 04:39:58;;;;;;;6.95;5.10;;;;;;;24.83;38.50;101181.78;5032909;28;20155;-66
2023/06/18 04:42:24;;;;;;;6.10;5.10;;;;;;;24.82;38.48;101175.63;5031397;28;20476;-66
2023/06/18 04:44:49;;;;;;;6.40;5.00;;;;;;;24.83;38.71;101176.44;5032586;28;20037;-65
2023/06/18 04:47:15;;;;;;;6.88;5.28;;;;;;;24.84;38.72;101175.47;5032464;28;20116;-66
2023/06/18 04:49:43;;;;;;;7.13;4.78;;;;;;;24.83;38.14;101179.09;5032130;28;20040;-66
2023/06/18 04:52:10;;;;;;;6.47;5.13;;;;;;;24.81;38.30;101172.09;5032906;28;20120;-67
2023/06/18 04:54:35;;;;;;;7.18;4.68;;;;;;;24.81;38.40;101173.94;5032578;28;20029;-68
2023/06/18 04:57:01;;;;;;;6.43;4.72;;;;;;;24.81;38.69;101179.25;5031128;28;20044;-68
2023/06/18 04:59:26;;;;;;;7.85;5.07;;;;;;;24.81;38.30;101185.41;5032864;28;20504;-67
2023/06/18 05:01:51;;;;;;;7.55;4.78;;;;;;;24.80;38.48;101177.59;5032175;28;20033;-66
2023/06/18 05:04:17;;;;;;;6.13;4.70;;;;;;;24.83;38.36;101187.94;5032525;28;20034;-66
2023/06/18 05:06:42;;;;;;;7.68;5.15;;;;;;;24.81;38.23;101182.75;5032338;28;20033;-66
2023/06/18 05:09:08;;;;;;;6.00;4.78;;;;;;;24.80;38.47;101186.44;5032412;28;20070;-68
2023/06/18 05:11:34;;;;;;;8.05;5.22;;;;;;;24.81;38.36;101192.59;5031716;28;20033;-65
2023/06/18 05:14:00;;;;;;;7.45;5.10;;;;;;;24.78;38.42;101190.25;5032168;28;20404;-67
2023/06/18 05:16:26;;;;;;;7.80;5.03;;;;;;;24.80;38.10;101188.25;5031598;28;20504;-66
2023/06/18 05:18:51;;;;;;;5.85;4.93;;;;;;;24.79;38.55;101192.75;5032521;28;20131;-67
2023/06/18 05:21:17;;;;;;;7.10;5.63;;;;;;;24.79;38.25;101191.94;5030925;28;20029;-67
2023/06/18 05:23:42;;;;;;;6.73;5.17;;;;;;;24.80;38.28;101185.59;5032514;28;20036;-67
2023/06/18 05:26:07;;;;;;;6.40;4.80;;;;;;;24.78;38.52;101191.09;5031651;28;20261;-68
2023/06/18 05:28:32;;;;;;;6.57;4.80;;;;;;;24.77;38.35;101191.25;5031660;28;20290;-67
2023/06/18 05:30:58;;;;;;;8.77;5.27;;;;;;;24.80;38.37;101199.75;5031424;28;20048;-68
2023/06/18 05:33:23;;;;;;;7.53;4.90;;;;;;;24.80;38.01;101198.91;5031985;28;20270;-67
2023/06/18 05:35:48;;;;;;;6.97;5.40;;;;;;;24.74;37.99;101187.06;5031642;28;20353;-67
2023/06/18 05:38:14;;;;;;;6.25;5.00;;;;;;;24.78;38.38;101196.44;5031705;28;20035;-68
2023/06/18 05:40:39;;;;;;;6.38;5.00;;;;;;;24.80;38.23;101201.56;5030647;28;20043;-67
2023/06/18 05:43:05;;;;;;;6.63;5.00;;;;;;;24.78;38.08;101190.25;5031704;28;20095;-67
2023/06/18 05:45:30;;;;;;;6.30;4.90;;;;;;;24.78;38.25;101198.25;5031229;28;20298;-69
2023/06/18 05:47:55;;;;;;;7.77;5.20;;;;;;;24.77;38.38;101197.41;5031191;28;20515;-66
2023/06/18 05:50:21;;;;;;;7.65;5.35;;;;;;;24.80;38.32;101204.25;5031318;28;20285;-67
2023/06/18 05:52:46;;;;;;;6.05;4.82;;;;;;;24.77;38.51;101200.09;5031472;28;20481;-67
2023/06/18 05:55:11;;;;;;;7.47;6.00;;;;;;;24.77;37.92;101208.06;5031854;28;20115;-65
2023/06/18 05:57:37;;;;;;;9.13;6.30;;;;;;;24.76;37.29;101203.72;5031340;28;20266;-68
2023/06/18 06:00:02;;;;;;;10.57;6.47;;;;;;;24.74;36.85;101199.56;5031058;28;20838;-65
2023/06/18 06:02:28;;;;;;;8.35;7.00;;;;;;;24.71;36.72;101202.56;5031398;28;20033;-66
2023/06/18 06:04:53;;;;;;;8.50;6.67;;;;;;;24.67;36.72;101199.34;5031630;28;20028;-65
2023/06/18 06:07:18;;;;;;;8.68;6.28;;;;;;;24.67;36.51;101198.53;5030944;28;20650;-66
2023/06/18 06:09:43;;;;;;;9.75;6.22;;;;;;;24.64;36.55;101202.34;5030430;28;20037;-66
2023/06/18 06:12:09;;;;;;;10.10;6.27;;;;;;;24.63;37.16;101203.34;5030116;28;20059;-66
2023/06/18 06:14:35;;;;;;;11.48;8.43;;;;;;;24.62;36.68;101202.53;5031102;28;20269;-65
2023/06/18 06:17:00;;;;;;;8.98;5.95;;;;;;;24.61;36.34;101203.50;5030637;28;20077;-67
2023/06/18 06:19:26;;;;;;;9.63;6.20;;;;;;;24.58;36.27;101206.50;5031564;28;20138;-66
2023/06/18 06:21:51;;;;;;;8.98;5.35;;;;;;;24.57;36.06;101212.81;5031196;28;20038;-67
2023/06/18 06:24:17;;;;;;;7.55;5.25;;;;;;;24.53;36.77;101214.09;5031519;28;20048;-66
2023/06/18 06:26:42;;;;;;;7.07;5.50;;;;;;;24.51;35.92;101217.91;5030990;28;20034;-66
2023/06/18 06:29:08;;;;;;;9.50;5.20;;;;;;;24.50;35.44;101221.53;5031349;28;20127;-68
2023/06/18 06:31:33;;;;;;;8.32;4.90;;;;;;;24.48;37.75;101239.53;5031366;28;20627;-67
2023/06/18 06:33:59;;;;;;;8.35;4.75;;;;;;;24.42;37.56;101263.16;5030933;28;20047;-67
2023/06/18 06:36:24;;;;;;;6.53;4.53;;;;;;;24.34;38.77;101257.75;5030875;28;20048;-68
2023/06/18 06:38:49;;;;;;;7.47;4.60;;;;;;;24.31;38.53;101262.53;5031736;28;20167;-65
2023/06/18 06:41:14;;;;;;;8.85;5.00;;;;;;;24.26;38.05;101268.38;5031458;28;20208;-63
2023/06/18 06:43:40;;;;;;;8.30;4.80;;;;;;;24.19;37.44;101267.31;5030153;28;20040;-66
2023/06/18 06:46:05;;;;;;;7.47;4.70;;;;;;;24.19;37.80;101273.44;5030777;28;20385;-67
2023/06/18 06:48:31;;;;;;;7.93;5.35;;;;;;;24.16;38.15;101279.09;5030906;28;20167;-67
2023/06/18 06:50:57;;;;;;;8.48;5.35;;;;;;;24.12;38.59;101268.94;5031602;28;20871;-66
2023/06/18 06:53:22;;;;;;;7.33;5.40;;;;;;;24.14;38.53;101269.59;5035251;28;20025;-67
2023/06/18 06:55:48;;;;;;;7.70;5.90;;;;;;;24.11;38.56;101277.88;5034651;28;20293;-68
2023/06/18 06:58:13;;;;;;;9.85;5.75;;;;;;;24.07;38.78;101267.53;5034104;28;20273;-67
2023/06/18 07:00:38;;;;;;;7.83;5.90;;;;;;;24.05;38.45;101268.69;5033153;28;20029;-66
2023/06/18 07:03:03;;;;;;;8.83;5.73;;;;;;;24.02;37.91;101269.84;5035197;28;20666;-68
2023/06/18 07:05:29;;;;;;;8.27;5.68;;;;;;;24.00;37.54;101266.47;5034360;28;20266;-66
2023/06/18 07:07:54;;;;;;;8.43;5.63;;;;;;;24.01;37.89;101259.34;5034947;28;20033;-67
2023/06/18 07:10:19;;;;;;;7.50;6.10;;;;;;;24.02;38.13;101267.19;5034588;28;20255;-66
2023/06/18 07:12:45;;;;;;;10.00;5.72;;;;;;;24.04;37.92;101267.03;5034367;28;20270;-65
2023/06/18 07:15:10;;;;;;;8.23;6.20;;;;;;;24.03;38.65;101263.50;5034369;28;20393;-64
2023/06/18 07:17:35;;;;;;;10.60;6.60;;;;;;;24.04;39.09;101275.00;5034310;28;20360;-66
2023/06/18 07:20:01;;;;;;;7.60;6.23;;;;;;;24.03;39.25;101268.00;5034072;28;20114;-67
2023/06/18 07:22:26;;;;;;;7.40;6.07;;;;;;;24.07;39.27;101280.03;5034605;28;20305;-64
2023/06/18 07:24:53;;;;;;;9.63;6.28;;;;;;;24.07;38.64;101277.38;5033072;28;20044;-66
2023/06/18 07:27:19;;;;;;;9.23;5.60;;;;;;;24.07;39.27;101261.41;5033250;28;20120;-66
2023/06/18 07:29:44;;;;;;;9.50;6.13;;;;;;;24.06;39.83;101263.19;5033815;28;20036;-66
2023/06/18 07:32:09;;;;;;;11.83;6.20;;;;;;;24.06;39.73;101265.03;5034254;28;20029;-65
2023/06/18 07:34:34;;;;;;;8.30;5.90;;;;;;;24.05;40.39;101263.34;5033464;28;20116;-67
2023/06/18 07:37:00;;;;;;;9.50;6.57;;;;;;;24.06;40.23;101263.19;5033966;28;20266;-66
2023/06/18 07:39:26;;;;;;;9.33;5.77;;;;;;;24.05;40.54;101260.69;5034152;28;20316;-66
2023/06/18 07:41:51;;;;;;;9.18;6.18;;;;;;;24.03;40.98;101255.53;5033523;28;20854;-66
2023/06/18 07:44:16;;;;;;;9.27;5.93;;;;;;;24.06;41.20;101254.38;5033796;28;20022;-65
2023/06/18 07:46:45;;;;;;;9.13;6.10;;;;;;;24.07;40.76;101262.22;5033634;28;20067;-66
2023/06/18 07:49:11;;;;;;;8.50;6.28;;;;;;;24.09;40.83;101262.91;5033550;28;20263;-66
2023/06/18 07:51:36;;;;;;;13.30;5.50;;;;;;;24.11;40.80;101259.25;5033471;28;20033;-67
2023/06/18 07:54:02;;;;;;;8.40;6.03;;;;;;;24.13;41.40;101262.59;5030821;28;20037;-65
2023/06/18 07:56:27;;;;;;;9.95;6.18;;;;;;;24.17;41.15;101261.31;5032467;28;20025;-67
2023/06/18 07:58:52;;;;;;;8.15;6.10;;;;;;;24.18;41.33;101257.63;5033477;28;20060;-68
2023/06/18 08:01:18;;;;;;;10.13;5.80;;;;;;;24.18;40.73;101260.28;5033319;28;20121;-67
2023/06/18 08:03:43;;;;;;;9.45;5.93;;;;;;;24.21;41.37;101259.97;5032334;28;20028;-67
2023/06/18 08:06:09;;;;;;;7.28;5.70;;;;;;;24.21;40.93;101257.31;5033130;28;20144;-67
2023/06/18 08:08:34;;;;;;;7.57;6.15;;;;;;;24.26;41.17;101260.38;5033606;28;20140;-67
2023/06/18 08:11:00;;;;;;;8.30;5.70;;;;;;;24.25;40.60;101256.03;5033422;28;20056;-66
2023/06/18 08:13:25;;;;;;;9.50;5.55;;;;;;;24.26;40.58;101253.22;5033585;28;20042;-68
2023/06/18 08:15:51;;;;;;;8.27;5.68;;;;;;;24.32;41.51;101253.56;5032668;28;21346;-67
2023/06/18 08:18:16;;;;;;;8.32;5.80;;;;;;;24.33;41.46;101256.09;5031565;28;20048;-65
2023/06/18 08:20:41;;;;;;;8.60;5.85;;;;;;;24.38;41.06;101248.44;5032891;28;20088;-68
2023/06/18 08:23:06;;;;;;;8.32;5.82;;;;;;;24.40;41.40;101250.97;5032367;28;20025;-71
2023/06/18 08:25:32;;;;;;;8.97;5.70;;;;;;;24.41;41.07;101242.81;5030027;28;20467;-67
2023/06/18 08:27:58;;;;;;;7.90;5.63;;;;;;;24.45;41.02;101246.84;5032945;28;20278;-68
2023/06/18 08:30:24;;;;;;;7.25;5.95;;;;;;;24.47;41.38;101243.16;5031686;28;20580;-67
2023/06/18 08:32:49;;;;;;;7.63;5.28;;;;;;;24.50;41.11;101246.38;5032421;28;20040;-68
2023/06/18 08:35:15;;;;;;;9.73;5.82;;;;;;;24.50;40.85;101232.22;5033739;28;20055;-70
2023/06/18 08:37:40;;;;;;;8.00;5.35;;;;;;;24.56;40.92;101240.47;5030859;28;20112;-69
2023/06/18 08:40:07;;;;;;;6.93;5.43;;;;;;;24.57;40.80;101241.28;5032176;28;20117;-70
2023/06/18 08:42:33;;;;;;;12.77;5.35;;;;;;;24.59;40.47;101239.28;5030769;28;20029;-68
2023/06/18 08:44:58;;;;;;;9.65;5.65;;;;;;;24.61;41.07;101243.47;5032095;28;20366;-68
2023/06/18 08:47:28;;;;;;;6.93;5.53;;;;;;;24.61;40.98;101240.00;5031974;28;20069;-68
2023/06/18 08:49:57;;;;;;;7.93;5.25;;;;;;;24.63;40.75;101240.66;5030937;28;20029;-67
2023/06/18 08:52:23;;;;;;;7.28;5.15;;;;;;;24.65;40.73;101244.00;5032361;28;20029;-67
2023/06/18 08:54:54;;;;;;;7.78;5.25;;;;;;;24.68;41.13;101245.50;5032193;28;20037;-66
2023/06/18 08:57:37;;;;;;;6.72;5.57;;;;;;;24.67;40.72;101243.84;5031350;28;20588;-71
2023/06/18 09:00:04;;;;;;;7.07;5.20;;;;;;;24.70;40.77;101238.19;5030527;28;20032;-67
2023/06/18 09:02:30;;;;;;;6.53;5.65;;;;;;;24.71;40.53;101246.03;5031545;28;20033;-68
2023/06/18 09:04:56;;;;;;;6.70;5.35;;;;;;;24.72;40.50;101250.38;5030251;28;20099;-66
2023/06/18 09:07:24;;;;;;;7.95;5.60;;;;;;;24.72;40.75;101242.38;5031058;28;20385;-67
2023/06/18 09:09:50;;;;;;;6.93;5.32;;;;;;;24.74;40.91;101247.56;5031233;28;20048;-65
2023/06/18 09:12:15;;;;;;;7.18;5.10;;;;;;;24.74;40.71;101247.56;5031935;28;20460;-66
2023/06/18 09:14:40;;;;;;;9.57;5.50;;;;;;;24.74;40.99;101251.03;5030562;28;20382;-67
2023/06/18 09:17:06;;;;;;;11.85;5.50;;;;;;;24.73;41.17;101243.19;5031650;28;20088;-67
2023/06/18 09:19:32;;;;;;;8.40;4.95;;;;;;;24.73;40.88;101251.19;5031787;28;20029;-69
2023/06/18 09:22:18;;;;;;;8.95;5.35;;;;;;;24.73;41.20;101251.19;5031763;28;20504;-69
2023/06/18 09:24:43;;;;;;;7.03;5.00;;;;;;;24.76;41.36;101248.22;5031770;28;20032;-68
2023/06/18 09:27:09;;;;;;;6.88;5.32;;;;;;;24.76;41.11;101251.72;5030767;28;20029;-68
2023/06/18 09:29:37;;;;;;;6.90;5.00;;;;;;;24.77;41.28;101253.38;5031995;28;20033;-68
2023/06/18 09:32:11;;;;;;;7.28;5.22;;;;;;;24.75;41.15;101250.06;5031595;28;20144;-69
2023/06/18 09:34:38;;;;;;;7.30;5.47;;;;;;;24.77;41.43;101256.06;5032510;28;20063;-68
2023/06/18 09:37:05;;;;;;;8.32;5.35;;;;;;;24.76;42.19;101256.22;5030341;28;20064;-72
2023/06/18 09:39:32;;;;;;;10.10;6.53;;;;;;;24.75;43.36;101252.72;5032056;28;20035;-72
2023/06/18 09:42:05;;;;;;;8.73;5.82;;;;;;;24.73;43.05;101253.84;5031435;28;20473;-67
2023/06/18 09:44:30;;;;;;;10.48;6.30;;;;;;;24.75;43.64;101252.72;5030470;28;20041;-68
2023/06/18 09:46:57;;;;;;;7.30;5.78;;;;;;;24.75;44.12;101255.38;5031014;28;20062;-67
2023/06/18 09:49:23;;;;;;;8.50;5.75;;;;;;;24.78;44.10;101257.72;5046531;28;20029;-69
2023/06/18 09:51:50;;;;;;;7.60;5.57;;;;;;;24.80;43.48;101258.41;5030985;28;20029;-69
2023/06/18 09:54:15;;;;;;;6.65;5.45;;;;;;;24.81;43.60;101246.72;5031552;28;20038;-67
2023/06/18 09:56:58;;;;;;;6.95;5.55;;;;;;;24.81;43.30;101245.91;5030354;28;20449;-67
2023/06/18 09:59:24;;;;;;;6.50;5.20;;;;;;;24.85;43.54;101241.94;5030174;28;20072;-67
2023/06/18 10:01:50;;;;;;;7.18;5.10;;;;;;;24.83;43.44;101246.56;5030343;28;20060;-68
2023/06/18 10:04:16;;;;;;;9.00;5.50;;;;;;;24.81;43.95;101238.72;5031213;28;20095;-67
2023/06/18 10:06:50;;;;;;;8.88;5.88;;;;;;;24.87;44.71;101239.94;5030082;28;20060;-68
2023/06/18 10:09:16;;;;;;;6.83;5.47;;;;;;;24.90;44.65;101226.28;5030612;28;20045;-67
2023/06/18 10:11:43;;;;;;;7.13;5.25;;;;;;;24.91;44.10;101224.44;5029820;28;20532;-68
2023/06/18 10:14:11;;;;;;;8.55;5.10;;;;;;;24.96;44.39;101224.81;5031199;28;20469;-71
2023/06/18 10:16:41;;;;;;;6.90;5.30;;;;;;;24.94;44.15;101222.31;5029576;28;20092;-69
2023/06/18 10:19:22;;;;;;;9.63;5.32;;;;;;;24.98;44.13;101218.31;5030512;28;20065;-72
2023/06/18 10:21:59;;;;;;;7.82;5.25;;;;;;;24.99;44.48;101211.13;5030280;28;20037;-73
2023/06/18 10:24:35;;;;;;;7.63;5.13;;;;;;;25.01;43.79;101205.66;5030709;28;20383;-72
2023/06/18 10:27:02;;;;;;;8.93;5.47;;;;;;;25.01;43.84;101206.50;5029401;28;20497;-67
2023/06/18 10:29:29;;;;;;;7.32;5.20;;;;;;;25.04;43.99;101202.66;5030180;28;20044;-66
2023/06/18 10:31:55;;;;;;;7.82;5.07;;;;;;;25.00;44.24;101196.81;5030187;28;20139;-67
2023/06/18 10:34:21;;;;;;;7.13;5.50;;;;;;;25.03;44.17;101193.00;5029738;28;20477;-68
2023/06/18 10:36:47;;;;;;;8.05;5.10;;;;;;;25.07;44.29;101199.69;5030088;28;20041;-68
2023/06/18 10:39:12;;;;;;;6.07;5.18;;;;;;;25.09;44.04;101206.53;5028836;28;20427;-68
2023/06/18 10:41:39;;;;;;;8.18;5.10;;;;;;;25.11;44.40;101206.38;5030142;28;20033;-68
2023/06/18 10:44:04;;;;;;;7.10;4.75;;;;;;;25.11;44.44;101198.38;5029933;28;20258;-68
2023/06/18 10:46:33;;;;;;;6.73;5.10;;;;;;;25.13;44.42;101205.22;5030869;28;20029;-66
2023/06/18 10:49:17;;;;;;;6.65;4.80;;;;;;;25.12;44.40;101200.88;5030660;28;20363;-68
2023/06/18 10:51:58;;;;;;;6.18;5.13;;;;;;;25.14;44.70;101195.38;5037713;28;20028;-66
2023/06/18 10:54:27;;;;;;;6.50;5.15;;;;;;;25.15;44.37;101200.53;5030964;28;20064;-67
2023/06/18 10:56:56;;;;;;;6.63;5.35;;;;;;;25.12;44.55;101195.53;5028454;28;20021;-69
2023/06/18 10:59:49;;;;;;;9.45;5.20;;;;;;;25.16;44.46;101186.19;5034514;28;20393;-68
2023/06/18 11:02:15;;;;;;;9.88;5.28;;;;;;;25.15;44.73;101181.03;5028629;28;20423;-69
2023/06/18 11:04:41;;;;;;;6.57;4.38;;;;;;;25.15;44.32;101192.53;5028259;28;20028;-67
2023/06/18 11:07:23;;;;;;;6.53;4.80;;;;;;;25.12;44.33;101171.53;5030080;28;20038;-71
2023/06/18 11:09:57;;;;;;;6.60;5.07;;;;;;;25.11;44.18;101172.53;5029567;28;20039;-68
2023/06/18 11:12:28;;;;;;;7.88;5.28;;;;;;;25.10;44.22;101170.88;5030362;28;20041;-68
2023/06/18 11:15:15;;;;;;;6.82;4.55;;;;;;;25.10;43.87;101168.22;5030135;28;20033;-68
2023/06/18 11:17:48;;;;;;;6.97;5.15;;;;;;;25.12;43.96;101162.72;5029883;28;20072;-70
2023/06/18 11:20:14;;;;;;;8.88;5.38;;;;;;;25.14;43.92;101163.38;5029700;28;20092;-69
2023/06/18 11:22:41;;;;;;;6.55;4.60;;;;;;;25.13;43.94;101156.34;5030140;28;20135;-72